EDT,Max TemperatureF,Mean TemperatureF,Min TemperatureF,Max Dew PointF,MeanDew PointF,Min DewpointF,Max Humidity, Mean Humidity, Min Humidity, Max Sea Level PressureIn, Mean Sea Level PressureIn, Min Sea Level PressureIn, Max VisibilityMiles, Mean VisibilityMiles, Min VisibilityMiles, Max Wind SpeedMPH, Mean Wind SpeedMPH, Max Gust SpeedMPH,PrecipitationIn, CloudCover, Events, WindDirDegrees
2013-3-1,42,36,30,29,26,24,89,69,51,29.83,29.75,29.65,10,10,10,13,7,22,0.00,6,,314
2013-3-2,39,34,28,23,21,18,69,61,50,29.83,29.79,29.74,10,10,10,14,9,24,0.00,8,,320
2013-3-3,36,30,25,17,16,15,69,57,44,29.82,29.78,29.73,10,10,10,15,11,25,0.00,6,,320
2013-3-4,39,33,27,21,17,14,64,54,41,29.96,29.88,29.83,10,10,10,23,14,31,0.00,4,,306
2013-3-5,46,37,28,25,22,19,72,57,40,30.04,29.99,29.96,10,10,10,14,7,20,0.00,3,,320
2013-3-6,39,36,33,34,30,26,89,79,65,29.96,29.85,29.78,10,10,9,22,9,34,0.11,7,Rain-Snow,39
2013-3-7,46,40,33,30,26,23,85,63,44,30.11,30.04,29.95,10,10,9,18,13,29,0.00,8,Snow,359
2013-3-8,41,34,28,30,27,22,93,85,59,30.24,30.07,30.03,10,4,0,16,11,25,0.26,7,Fog-Snow,329
2013-3-9,60,45,30,24,18,13,66,42,17,30.32,30.26,30.21,10,10,10,14,6,18,0.00,0,,358
2013-3-10,54,41,28,34,28,14,93,62,37,30.37,30.32,30.26,10,10,10,9,2,,0.00,1,,145
2013-3-11,57,45,33,47,40,32,100,88,47,30.29,30.18,30.05,10,7,0,9,3,,0.00,6,Fog,153
2013-3-12,57,48,39,55,49,32,100,92,71,30.05,29.81,29.68,10,8,2,18,9,30,1.11,7,Rain,197
2013-3-13,48,39,32,36,27,21,87,62,39,29.94,29.89,29.83,10,10,10,13,7,24,0.00,2,Rain,281
2013-3-14,39,33,27,19,13,8,72,46,30,30.01,29.96,29.91,10,10,10,21,13,34,0.00,3,,295
2013-3-15,48,37,26,29,19,10,58,47,38,30.02,29.89,29.74,10,10,10,13,7,26,0.00,4,,255
2013-3-16,43,36,30,30,29,21,100,88,55,29.94,29.81,29.75,10,6,0,9,4,,0.05,8,Fog-Rain-Snow,24
2013-3-17,37,32,27,30,21,16,100,69,48,30.31,30.13,29.91,10,10,9,10,3,20,0.28,2,,338
2013-3-18,37,31,25,33,23,9,100,76,47,30.38,30.21,29.93,10,8,1,9,4,,0.01,6,Rain-Snow,60
2013-3-19,50,40,33,37,31,17,100,78,40,29.90,29.78,29.71,10,8,3,16,7,28,0.68,5,Rain,335
2013-3-20,46,36,28,19,16,14,59,45,30,29.92,29.87,29.80,10,10,10,16,9,28,0.00,3,,275
2013-3-21,37,32,27,29,20,9,100,68,34,29.83,29.77,29.67,10,8,2,15,6,25,0.01,6,Snow,336
2013-3-22,41,32,25,19,17,11,75,55,39,29.94,29.84,29.78,10,10,10,17,8,28,0.00,2,,270
2013-3-23,48,36,28,19,18,16,64,48,34,29.96,29.92,29.88,10,10,10,15,9,24,0.00,2,,300
2013-3-24,46,35,25,24,19,16,75,51,31,29.98,29.85,29.69,10,10,10,9,3,,0.00,1,,334
2013-3-25,36,34,32,34,31,24,100,89,62,29.70,29.55,29.47,10,7,0,14,5,24,0.36,8,Fog-Rain-Snow,4
2013-3-26,52,42,33,34,30,24,100,70,36,29.91,29.77,29.62,10,10,10,13,6,20,0.00,7,,299
2013-3-27,52,41,32,30,27,23,82,61,36,30.03,29.95,29.91,10,10,10,15,7,26,0.00,2,,297
2013-3-28,48,38,30,31,27,25,79,59,44,30.15,30.06,30.00,10,10,10,14,6,18,0.00,5,,309
2013-3-29,53,43,33,29,26,24,72,53,35,30.18,30.15,30.10,10,10,10,13,7,21,0.00,4,,313
2013-3-30,57,42,30,30,24,19,85,51,25,30.20,30.15,30.09,10,10,10,12,2,18,0.00,1,,267
2013-3-31,54,44,34,46,36,24,100,77,38,30.13,29.91,29.70,10,8,2,17,4,24,0.25,5,Rain,177